Terminal Aerodrome Forecast
Issued by NWS

Home | Current Version | Previous Version | Text Only | Print | Product List | Glossary On
Versions: 1 2 3 4 5 6 7 8 9 10 11 12 13 14 15 16 17 18 19 20 21 22 23 24 25 26 27 28 29 30 31 32
000
FTUS43 KPAH 290520
TAFOWB
TAF
KOWB 290520Z 2906/3006 20007KT P6SM VCSH SCT040 BKN070
      TEMPO 2906/2909 3SM -SHRA BR BKN035
     FM290900 20009KT P6SM SCT070
     FM291500 26011G17KT P6SM BKN040
     FM300000 VRB03KT P6SM SCT070=

USA.gov is the U.S. government's official web portal to all federal, state and local government web resources and services.